TimeCST,TemperatureF,Dew PointF,Humidity,Sea Level PressureIn,VisibilityMPH,Wind Direction,Wind SpeedMPH,Gust SpeedMPH,PrecipitationIn,Events,Conditions,WindDirDegrees,DateUTC
12:15 AM,32.0,19.4,60,29.86,10.0,South,13.8,-,N/A,,Clear,180,2014-01-04 06:15:00
12:35 AM,32.0,19.4,60,29.86,10.0,South,13.8,20.7,N/A,,Clear,180,2014-01-04 06:35:00
12:55 AM,32.0,19.4,60,29.85,10.0,South,13.8,17.3,N/A,,Clear,180,2014-01-04 06:55:00
1:15 AM,32.0,19.4,60,29.84,10.0,South,13.8,-,N/A,,Clear,180,2014-01-04 07:15:00
1:35 AM,32.0,19.4,60,29.83,10.0,South,13.8,19.6,N/A,,Clear,180,2014-01-04 07:35:00
1:55 AM,32.0,21.2,64,29.83,10.0,South,13.8,19.6,N/A,,Clear,190,2014-01-04 07:55:00
2:15 AM,32.0,21.2,64,29.83,10.0,South,12.7,-,N/A,,Clear,180,2014-01-04 08:15:00
2:35 AM,32.0,21.2,64,29.83,10.0,South,11.5,18.4,N/A,,Clear,180,2014-01-04 08:35:00
2:55 AM,32.0,21.2,64,29.83,10.0,South,11.5,17.3,N/A,,Clear,180,2014-01-04 08:55:00
3:15 AM,32.0,21.2,64,29.83,10.0,South,10.4,-,N/A,,Clear,180,2014-01-04 09:15:00
3:35 AM,32.0,21.2,64,29.82,10.0,South,11.5,-,N/A,,Clear,180,2014-01-04 09:35:00
3:55 AM,32.0,21.2,64,29.82,10.0,South,10.4,-,N/A,,Clear,180,2014-01-04 09:55:00
4:15 AM,32.0,21.2,64,29.83,10.0,South,10.4,-,N/A,,Clear,180,2014-01-04 10:15:00
4:35 AM,32.0,21.2,64,29.82,10.0,South,8.1,-,N/A,,Clear,170,2014-01-04 10:35:00
4:55 AM,32.0,21.2,64,29.83,10.0,South,6.9,-,N/A,,Clear,180,2014-01-04 10:55:00
5:15 AM,32.0,21.2,64,29.83,10.0,South,8.1,-,N/A,,Clear,170,2014-01-04 11:15:00
5:35 AM,32.0,21.2,64,29.82,10.0,SSE,8.1,-,N/A,,Clear,160,2014-01-04 11:35:00
5:55 AM,30.2,21.2,69,29.83,10.0,SSE,9.2,-,N/A,,Clear,160,2014-01-04 11:55:00
6:15 AM,32.0,21.2,64,29.85,10.0,South,5.8,-,N/A,,Clear,170,2014-01-04 12:15:00
6:35 AM,32.0,21.2,64,29.85,10.0,South,6.9,-,N/A,,Clear,170,2014-01-04 12:35:00
6:55 AM,30.2,21.2,69,29.84,10.0,South,8.1,-,N/A,,Clear,170,2014-01-04 12:55:00
7:15 AM,30.2,21.2,69,29.84,10.0,SSE,8.1,-,N/A,,Clear,160,2014-01-04 13:15:00
7:35 AM,32.0,23.0,69,29.85,10.0,SSE,6.9,-,N/A,,Clear,160,2014-01-04 13:35:00
7:55 AM,32.0,23.0,69,29.86,10.0,South,8.1,-,N/A,,Clear,170,2014-01-04 13:55:00
8:15 AM,32.0,23.0,69,29.86,10.0,South,8.1,-,N/A,,Clear,170,2014-01-04 14:15:00
8:35 AM,33.8,23.0,65,29.87,10.0,South,8.1,-,N/A,,Clear,170,2014-01-04 14:35:00
8:55 AM,33.8,23.0,65,29.88,10.0,South,8.1,-,N/A,,Clear,170,2014-01-04 14:55:00
9:15 AM,35.6,24.8,65,29.88,10.0,South,8.1,-,N/A,,Clear,180,2014-01-04 15:15:00
9:35 AM,37.4,24.8,60,29.88,10.0,South,6.9,-,N/A,,Clear,170,2014-01-04 15:35:00
9:55 AM,37.4,26.6,65,29.88,10.0,South,9.2,-,N/A,,Clear,180,2014-01-04 15:55:00
10:15 AM,39.2,26.6,61,29.88,10.0,South,9.2,-,N/A,,Clear,180,2014-01-04 16:15:00
10:35 AM,39.2,28.4,65,29.88,10.0,South,9.2,-,N/A,,Clear,180,2014-01-04 16:35:00
10:55 AM,39.2,28.4,65,29.88,10.0,South,8.1,-,N/A,,Clear,190,2014-01-04 16:55:00
11:15 AM,42.8,30.2,61,29.87,10.0,South,10.4,-,N/A,,Clear,190,2014-01-04 17:15:00
11:35 AM,42.8,30.2,61,29.86,10.0,SSW,11.5,-,N/A,,Clear,200,2014-01-04 17:35:00
11:55 AM,42.8,32.0,66,29.85,10.0,SSW,6.9,-,N/A,,Clear,200,2014-01-04 17:55:00
12:15 PM,44.6,32.0,61,29.84,10.0,SW,6.9,-,N/A,,Clear,220,2014-01-04 18:15:00
12:35 PM,44.6,32.0,61,29.84,10.0,SSW,5.8,-,N/A,,Clear,210,2014-01-04 18:35:00
12:55 PM,44.6,33.8,66,29.84,10.0,WSW,11.5,16.1,N/A,,Partly Cloudy,240,2014-01-04 18:55:00
1:15 PM,44.6,33.8,66,29.84,10.0,WSW,9.2,-,N/A,,Mostly Cloudy,240,2014-01-04 19:15:00
1:35 PM,44.6,33.8,66,29.83,10.0,SW,5.8,-,N/A,,Overcast,230,2014-01-04 19:35:00
1:55 PM,42.8,33.8,70,29.83,10.0,WSW,8.1,-,N/A,,Overcast,250,2014-01-04 19:55:00
2:15 PM,42.8,33.8,70,29.84,10.0,WSW,5.8,-,N/A,,Overcast,250,2014-01-04 20:15:00
2:35 PM,42.8,35.6,76,29.84,10.0,West,3.5,-,N/A,,Overcast,260,2014-01-04 20:35:00
2:55 PM,42.8,35.6,76,29.84,10.0,Calm,Calm,-,N/A,,Overcast,0,2014-01-04 20:55:00
3:15 PM,42.8,33.8,70,29.85,10.0,Calm,Calm,-,N/A,,Overcast,0,2014-01-04 21:15:00
3:35 PM,39.2,33.8,81,29.85,10.0,Calm,Calm,-,N/A,,Overcast,0,2014-01-04 21:35:00
3:55 PM,39.2,33.8,81,29.85,10.0,Calm,Calm,-,N/A,,Overcast,0,2014-01-04 21:55:00
4:15 PM,39.2,33.8,81,29.86,10.0,Calm,Calm,-,N/A,,Overcast,0,2014-01-04 22:15:00
4:35 PM,39.2,33.8,81,29.86,10.0,Calm,Calm,-,N/A,,Overcast,0,2014-01-04 22:35:00
4:55 PM,39.2,33.8,81,29.87,10.0,Calm,Calm,-,N/A,,Overcast,0,2014-01-04 22:55:00
5:15 PM,39.2,33.8,81,29.88,10.0,NNE,4.6,-,N/A,,Mostly Cloudy,20,2014-01-04 23:15:00
5:35 PM,35.6,32.0,87,29.90,8.0,North,16.1,21.9,N/A,,Light Drizzle,360,2014-01-04 23:35:00
5:55 PM,33.8,30.2,87,29.92,5.0,North,17.3,-,N/A,,Light Drizzle,10,2014-01-04 23:55:00
6:15 PM,33.8,30.2,87,29.93,6.0,North,10.4,19.6,N/A,,Light Drizzle,10,2014-01-05 00:15:00
6:35 PM,33.8,30.2,87,29.94,6.0,North,16.1,-,N/A,,Overcast,10,2014-01-05 00:35:00
6:55 PM,33.8,30.2,87,29.95,5.0,NNE,15.0,-,N/A,,Light Drizzle,20,2014-01-05 00:55:00
7:15 PM,32.0,30.2,93,29.96,5.0,North,18.4,-,N/A,,Overcast,10,2014-01-05 01:15:00
7:35 PM,32.0,28.4,87,29.97,7.0,North,17.3,20.7,N/A,,Overcast,10,2014-01-05 01:35:00
7:55 PM,32.0,28.4,87,29.99,5.0,North,16.1,-,N/A,,Overcast,360,2014-01-05 01:55:00
8:15 PM,30.2,26.6,86,29.99,7.0,North,15.0,-,N/A,,Overcast,10,2014-01-05 02:15:00
8:35 PM,30.2,26.6,86,30.00,5.0,North,11.5,-,N/A,,Overcast,10,2014-01-05 02:35:00
8:55 PM,28.4,26.6,93,30.01,6.0,North,11.5,-,N/A,,Overcast,10,2014-01-05 02:55:00
9:15 PM,28.4,24.8,86,30.01,5.0,North,15.0,-,N/A,,Overcast,360,2014-01-05 03:15:00
9:35 PM,26.6,23.0,86,30.02,5.0,North,16.1,-,N/A,Rain,Freezing Rain,10,2014-01-05 03:35:00
9:55 PM,26.6,23.0,86,30.02,5.0,North,15.0,-,N/A,Rain,Freezing Rain,10,2014-01-05 03:55:00
10:15 PM,26.6,23.0,86,30.02,4.0,North,11.5,-,N/A,Rain,Freezing Rain,10,2014-01-05 04:15:00
10:35 PM,26.6,23.0,86,30.01,3.0,North,16.1,-,N/A,Rain,Freezing Rain,10,2014-01-05 04:35:00
10:55 PM,24.8,23.0,93,30.00,3.0,North,19.6,-,0.01,Rain,Freezing Rain,360,2014-01-05 04:55:00
11:15 PM,23.0,21.2,93,29.98,5.0,North,19.6,23.0,N/A,,Freezing Rain,360,2014-01-05 05:15:00
11:35 PM,23.0,19.4,86,29.98,6.0,North,18.4,25.3,N/A,Rain,Freezing Rain,10,2014-01-05 05:35:00
11:55 PM,23.0,19.4,86,30.00,10.0,North,16.1,25.3,N/A,,Overcast,10,2014-01-05 05:55:00